Time;durP1;ratioP1;P1;durP2;ratioP2;P2;SDS_P1;SDS_P2;PMS_P1;PMS_P2;Temp;Humidity;BMP_temperature;BMP_pressure;BME280_temperature;BME280_humidity;BME280_pressure;Samples;Min_cycle;Max_cycle;Signal;HPM_P1;HPM_P2
2023/09/15 00:01:40;;;;;;;17.40;10.90;;;;;;;18.65;84.65;99328.80;107346;1253;67656;-39
2023/09/15 00:04:09;;;;;;;14.10;9.80;;;;;;;18.61;84.91;99331.77;107449;1254;71386;-40
2023/09/15 00:06:37;;;;;;;13.00;8.60;;;;;;;18.60;84.84;99332.80;107451;1254;60665;-39
2023/09/15 00:09:06;;;;;;;10.50;8.80;;;;;;;18.61;84.78;99336.01;107526;1253;60533;-39
2023/09/15 00:11:40;;;;;;;15.70;9.00;;;;;;;18.67;84.81;99334.52;107412;1254;73889;-39
2023/09/15 00:14:11;;;;;;;10.40;8.80;;;;;;;18.68;84.65;99334.91;107502;1254;67738;-39
2023/09/15 00:16:40;;;;;;;14.80;9.10;;;;;;;18.67;84.75;99331.14;107435;1256;71441;-40
2023/09/15 00:19:14;;;;;;;11.00;8.20;;;;;;;18.74;84.35;99331.52;107487;1253;60731;-39
2023/09/15 00:21:43;;;;;;;10.50;8.00;;;;;;;18.81;84.21;99334.22;107474;1254;60184;-39
2023/09/15 00:24:11;;;;;;;12.30;9.10;;;;;;;18.88;84.06;99330.04;107493;1254;72930;-39
2023/09/15 00:26:38;;;;;;;10.70;9.00;;;;;;;18.93;83.88;99330.81;107306;1254;67730;-39
2023/09/15 00:29:07;;;;;;;12.30;9.20;;;;;;;18.89;83.56;99320.06;107411;1253;72677;-39
2023/09/15 00:31:36;;;;;;;12.50;9.20;;;;;;;18.99;82.99;99322.80;107431;1253;62441;-40
2023/09/15 00:34:04;;;;;;;11.20;8.60;;;;;;;19.02;82.75;99324.71;107387;1254;60234;-40
2023/09/15 00:36:32;;;;;;;11.20;9.50;;;;;;;19.05;82.67;99325.53;107258;1253;73898;-39
2023/09/15 00:39:01;;;;;;;12.70;10.20;;;;;;;19.03;82.66;99335.13;107293;1254;67860;-39
2023/09/15 00:41:29;;;;;;;12.40;10.50;;;;;;;19.02;82.64;99334.70;107267;1254;72692;-39
2023/09/15 00:43:57;;;;;;;13.00;11.20;;;;;;;19.02;82.80;99336.98;107487;1257;60702;-40
2023/09/15 00:46:24;;;;;;;12.80;10.50;;;;;;;19.01;82.60;99337.70;107293;1253;60446;-39
2023/09/15 00:48:55;;;;;;;12.40;11.10;;;;;;;19.00;82.74;99341.70;107494;1253;72622;-39
2023/09/15 00:51:24;;;;;;;13.90;12.40;;;;;;;18.97;82.79;99339.72;107432;1253;67947;-39
2023/09/15 00:53:54;;;;;;;14.00;12.60;;;;;;;18.92;83.11;99334.38;107514;1254;72692;-39
2023/09/15 00:56:21;;;;;;;16.80;13.00;;;;;;;18.85;83.46;99328.92;107315;1256;61693;-39
2023/09/15 00:58:49;;;;;;;16.60;13.40;;;;;;;18.95;83.38;99335.88;107488;1253;59626;-40
2023/09/15 01:01:18;;;;;;;18.00;13.20;;;;;;;19.01;83.35;99343.26;107443;1254;73911;-39
2023/09/15 01:03:46;;;;;;;18.10;15.00;;;;;;;19.03;83.26;99339.87;107458;1254;67969;-40
2023/09/15 01:06:14;;;;;;;17.10;15.20;;;;;;;19.03;83.20;99349.44;107466;1253;72678;-40
2023/09/15 01:08:41;;;;;;;22.00;16.70;;;;;;;18.98;83.44;99346.07;107285;1260;61999;-39
2023/09/15 01:11:10;;;;;;;20.70;15.40;;;;;;;18.94;83.53;99347.92;107510;1253;60300;-39
2023/09/15 01:13:37;;;;;;;18.10;15.70;;;;;;;18.93;83.57;99355.63;107484;1253;74363;-40
2023/09/15 01:16:24;;;;;;;27.10;17.60;;;;;;;18.90;83.66;99358.98;107290;1254;66616;-39
2023/09/15 01:19:09;;;;;;;20.90;18.60;;;;;;;18.81;84.08;99366.48;107474;1254;72693;-39
2023/09/15 01:22:04;;;;;;;21.20;17.80;;;;;;;18.72;84.64;99366.14;107462;1254;61693;-39
2023/09/15 01:24:50;;;;;;;18.70;16.50;;;;;;;18.70;85.02;99369.78;107269;1253;60325;-39
2023/09/15 01:27:26;;;;;;;17.70;15.80;;;;;;;18.72;85.10;99372.52;107444;1254;73956;-39
2023/09/15 01:29:55;;;;;;;21.60;18.40;;;;;;;18.76;85.31;99373.30;107251;1253;67875;-39
2023/09/15 01:32:22;;;;;;;21.10;18.90;;;;;;;18.80;85.53;99371.38;107492;1258;70980;-39
2023/09/15 01:34:52;;;;;;;22.60;18.00;;;;;;;18.81;85.46;99371.20;107471;1256;61734;-39
2023/09/15 01:37:20;;;;;;;21.00;17.20;;;;;;;18.83;85.15;99373.05;107284;1253;60373;-40
2023/09/15 01:39:48;;;;;;;20.20;16.40;;;;;;;18.87;84.95;99375.27;107274;1253;73171;-39
2023/09/15 01:42:15;;;;;;;19.70;17.60;;;;;;;18.89;84.66;99371.86;107293;1253;68081;-39
2023/09/15 01:44:43;;;;;;;20.20;17.90;;;;;;;18.90;84.46;99375.62;107469;1254;71972;-39
2023/09/15 01:47:17;;;;;;;20.40;17.60;;;;;;;18.88;84.51;99378.56;107476;1253;61662;-41
2023/09/15 01:49:45;;;;;;;22.90;17.40;;;;;;;18.90;84.52;99378.91;107445;1259;59292;-42
2023/09/15 01:52:13;;;;;;;19.20;16.80;;;;;;;18.92;84.20;99380.13;107310;1254;73862;-42
2023/09/15 01:54:41;;;;;;;20.10;18.00;;;;;;;18.93;84.22;99376.89;107433;1253;67609;-42
2023/09/15 01:57:08;;;;;;;22.00;19.50;;;;;;;18.91;84.38;99380.23;107403;1255;71449;-42
2023/09/15 01:59:36;;;;;;;21.90;19.40;;;;;;;18.87;84.54;99385.71;107446;1254;61705;-42
2023/09/15 02:02:03;;;;;;;21.20;18.50;;;;;;;18.87;84.70;99386.66;107304;1260;59256;-42
2023/09/15 02:04:32;;;;;;;22.40;17.90;;;;;;;18.92;84.79;99382.80;107426;1253;72655;-42
2023/09/15 02:07:00;;;;;;;21.90;19.70;;;;;;;18.97;84.87;99380.85;107464;1254;67627;-42
2023/09/15 02:09:27;;;;;;;24.40;21.20;;;;;;;18.98;84.75;99379.57;107411;1253;72718;-41
2023/09/15 02:11:55;;;;;;;26.70;21.40;;;;;;;18.96;84.85;99381.58;107268;1254;196442;-41
2023/09/15 02:15:22;;;;;;;24.80;21.20;;;;;;;18.94;84.95;99377.36;104126;1292;601214;-41
2023/09/15 02:17:51;;;;;;;26.70;21.50;;;;;;;18.95;84.92;99377.27;106662;1263;61672;-41
2023/09/15 02:20:19;;;;;;;23.60;21.00;;;;;;;18.95;85.05;99382.45;106733;1263;59246;-41
2023/09/15 02:22:47;;;;;;;24.80;21.80;;;;;;;18.91;85.42;99382.90;106654;1264;72253;-41
2023/09/15 02:25:15;;;;;;;24.80;22.10;;;;;;;18.86;85.68;99384.32;106631;1269;66334;-41
2023/09/15 02:27:44;;;;;;;24.30;20.90;;;;;;;18.88;85.87;99387.98;106718;1266;71717;-41
2023/09/15 02:30:12;;;;;;;23.80;21.30;;;;;;;18.90;85.95;99388.48;106645;1261;168352;-41
2023/09/15 02:32:39;;;;;;;28.90;23.60;;;;;;;18.93;85.93;99392.84;106785;1266;59133;-42
2023/09/15 02:35:09;;;;;;;26.70;23.60;;;;;;;18.93;86.10;99393.54;106775;1264;72261;-41
2023/09/15 02:37:37;;;;;;;28.80;23.70;;;;;;;18.92;86.30;99391.69;106790;1263;67736;-41
2023/09/15 02:40:07;;;;;;;25.60;22.20;;;;;;;18.95;86.26;99392.65;106752;1263;72733;-41
2023/09/15 02:42:35;;;;;;;;;;;;;;;19.01;86.10;99397.35;106944;1263;60481;-41
2023/09/15 02:45:04;;;;;;;28.00;22.80;;;;;;;19.04;85.89;99402.08;106933;1260;59656;-41
2023/09/15 02:47:33;;;;;;;28.30;23.70;;;;;;;19.07;85.99;99404.23;106889;1264;71770;-41
2023/09/15 02:50:01;;;;;;;24.90;22.20;;;;;;;19.05;86.00;99405.61;106866;1260;66651;-41
2023/09/15 02:52:28;;;;;;;25.30;22.00;;;;;;;19.06;85.91;99410.54;106863;1263;72684;-42
2023/09/15 02:54:56;;;;;;;23.50;20.40;;;;;;;19.08;85.62;99411.91;106868;1261;60359;-41
2023/09/15 02:57:24;;;;;;;24.00;20.40;;;;;;;19.07;85.44;99411.86;106833;1266;59539;-42
2023/09/15 02:59:53;;;;;;;24.20;21.60;;;;;;;19.06;85.63;99411.48;106881;1260;73037;-41
2023/09/15 03:02:21;;;;;;;26.10;21.90;;;;;;;19.04;85.63;99412.38;106887;1263;66280;-43
2023/09/15 03:04:49;;;;;;;24.40;21.70;;;;;;;19.00;85.64;99415.19;106835;1264;72717;-42
2023/09/15 03:07:16;;;;;;;23.50;20.40;;;;;;;18.99;85.73;99420.30;106860;1261;60455;-39
2023/09/15 03:09:44;;;;;;;22.00;19.60;;;;;;;19.01;85.86;99421.38;106862;1263;60034;-41
2023/09/15 03:12:12;;;;;;;24.60;20.10;;;;;;;19.04;85.82;99428.02;106919;1260;71883;-41
2023/09/15 03:14:40;;;;;;;24.60;20.90;;;;;;;19.07;85.84;99427.64;106900;1263;66389;-41
2023/09/15 03:17:08;;;;;;;24.50;21.90;;;;;;;19.13;85.90;99430.09;106872;1263;71407;-41
2023/09/15 03:19:36;;;;;;;22.40;20.20;;;;;;;19.15;85.71;99429.58;106865;1261;61717;-41
2023/09/15 03:22:03;;;;;;;26.40;20.30;;;;;;;19.14;85.51;99432.10;106883;1263;59619;-41
2023/09/15 03:24:36;;;;;;;22.90;20.20;;;;;;;19.17;85.56;99432.52;106873;1263;73111;-41
2023/09/15 03:27:05;;;;;;;25.00;21.30;;;;;;;19.21;85.52;99429.88;106909;1264;66437;-41
2023/09/15 03:29:32;;;;;;;24.60;21.90;;;;;;;19.22;85.33;99436.70;106873;1264;72813;-41
2023/09/15 03:32:00;;;;;;;25.40;22.60;;;;;;;19.20;85.22;99437.36;106844;1263;60790;-41
2023/09/15 03:34:28;;;;;;;24.50;21.60;;;;;;;19.20;85.06;99437.91;106871;1264;59535;-41
2023/09/15 03:36:55;;;;;;;25.70;21.20;;;;;;;19.23;84.85;99443.59;106867;1261;73038;-42
2023/09/15 03:39:23;;;;;;;26.40;21.50;;;;;;;19.20;84.85;99452.90;106890;1263;67894;-41
2023/09/15 03:41:51;;;;;;;25.60;22.10;;;;;;;19.16;85.15;99456.96;106864;1263;71944;-42
2023/09/15 03:44:21;;;;;;;25.00;21.60;;;;;;;19.14;85.30;99460.69;106871;1261;60739;-42
2023/09/15 03:46:49;;;;;;;23.90;21.10;;;;;;;19.10;85.25;99465.21;106843;1263;59605;-41
2023/09/15 03:49:17;;;;;;;24.20;20.10;;;;;;;19.08;85.35;99466.81;106909;1263;71854;-41
2023/09/15 03:51:45;;;;;;;24.20;20.10;;;;;;;19.06;85.53;99469.75;106880;1263;66811;-41
2023/09/15 03:54:13;;;;;;;21.50;19.20;;;;;;;19.01;85.59;99470.59;106879;1263;72834;-42
2023/09/15 03:56:40;;;;;;;24.00;21.40;;;;;;;18.94;85.96;99475.55;106856;1263;59669;-42
2023/09/15 03:59:08;;;;;;;23.50;21.10;;;;;;;18.88;86.39;99477.76;106890;1260;60038;-41
2023/09/15 04:01:36;;;;;;;23.80;21.00;;;;;;;18.87;86.71;99481.30;106869;1261;73156;-41
2023/09/15 04:04:04;;;;;;;23.70;21.20;;;;;;;18.87;86.61;99479.50;106865;1263;67710;-41
2023/09/15 04:06:33;;;;;;;24.20;20.20;;;;;;;18.87;86.86;99481.39;106860;1262;72904;-41
2023/09/15 04:09:00;;;;;;;22.10;19.40;;;;;;;18.86;87.12;99483.83;106837;1263;61709;-41
2023/09/15 04:11:29;;;;;;;24.10;20.30;;;;;;;18.91;87.45;99483.91;107074;1257;59483;-41
2023/09/15 04:13:56;;;;;;;24.80;22.20;;;;;;;18.98;87.50;99489.01;107098;1257;73094;-42
2023/09/15 04:16:24;;;;;;;26.60;21.60;;;;;;;19.01;87.37;99487.95;107069;1257;66416;-42
2023/09/15 04:18:52;;;;;;;22.90;20.40;;;;;;;19.05;87.14;99491.89;107103;1257;71435;-42
2023/09/15 04:21:22;;;;;;;23.10;20.60;;;;;;;19.09;86.94;99495.13;107036;1257;60975;-41
2023/09/15 04:23:51;;;;;;;22.60;20.30;;;;;;;19.14;86.97;99495.63;107186;1257;59589;-41
2023/09/15 04:26:19;;;;;;;23.70;21.20;;;;;;;19.17;86.57;99499.27;107209;1263;73052;-41
2023/09/15 04:28:47;;;;;;;24.20;21.20;;;;;;;19.19;86.69;99501.84;107136;1257;66414;-41
2023/09/15 04:31:15;;;;;;;23.40;20.90;;;;;;;19.19;86.32;99499.79;107225;1260;71427;-41
2023/09/15 04:33:44;;;;;;;22.20;19.80;;;;;;;19.20;86.32;99499.30;107251;1257;60399;-42
2023/09/15 04:36:12;;;;;;;23.10;19.80;;;;;;;19.25;86.18;99505.38;107252;1258;60058;-41
2023/09/15 04:38:40;;;;;;;23.80;20.90;;;;;;;19.27;86.01;99502.34;107073;1263;73026;-41
2023/09/15 04:41:08;;;;;;;22.60;20.20;;;;;;;19.30;86.06;99503.73;107296;1257;67369;-42
2023/09/15 04:43:36;;;;;;;22.90;20.30;;;;;;;19.32;86.10;99505.96;107027;1257;72836;-42
2023/09/15 04:46:04;;;;;;;22.70;20.30;;;;;;;19.35;85.95;99503.17;107138;1262;61705;-42
2023/09/15 04:48:32;;;;;;;21.80;19.50;;;;;;;19.41;85.77;99504.60;107238;1257;59477;-42
2023/09/15 04:51:00;;;;;;;23.00;19.50;;;;;;;19.44;85.24;99509.52;107165;1259;74047;-42
2023/09/15 04:53:28;;;;;;;22.90;20.40;;;;;;;19.43;85.29;99505.98;107219;1261;65454;-42
2023/09/15 04:55:56;;;;;;;22.40;20.00;;;;;;;19.43;85.32;99506.69;107234;1257;72658;-42
2023/09/15 04:58:24;;;;;;;23.90;20.30;;;;;;;19.43;85.11;99509.27;107220;1263;60490;-42
2023/09/15 05:00:52;;;;;;;22.80;20.20;;;;;;;19.42;85.01;99509.44;107153;1257;60008;-42
2023/09/15 05:03:20;;;;;;;23.60;19.50;;;;;;;19.42;84.83;99512.34;107261;1261;71881;-42
2023/09/15 05:05:50;;;;;;;21.70;19.40;;;;;;;19.43;85.04;99512.42;107059;1257;67576;-42
2023/09/15 05:08:19;;;;;;;23.40;20.50;;;;;;;19.47;85.14;99514.27;107096;1263;71467;-42
2023/09/15 05:10:48;;;;;;;24.50;20.60;;;;;;;19.47;84.82;99514.42;107265;1257;60134;-42
2023/09/15 05:13:15;;;;;;;23.00;20.00;;;;;;;19.39;84.85;99519.30;107274;1257;58750;-42
2023/09/15 05:15:44;;;;;;;22.30;19.50;;;;;;;19.33;84.97;99520.73;107184;1257;72174;-42
2023/09/15 05:18:12;;;;;;;21.00;18.40;;;;;;;19.34;85.24;99524.48;107311;1257;66313;-42
2023/09/15 05:20:40;;;;;;;20.20;17.90;;;;;;;19.36;85.31;99523.66;107296;1262;72689;-42
2023/09/15 05:23:07;;;;;;;21.90;19.30;;;;;;;19.39;85.03;99529.20;107064;1261;60509;-42
2023/09/15 05:25:36;;;;;;;23.80;20.50;;;;;;;19.33;84.73;99534.80;107200;1262;59535;-42
2023/09/15 05:28:04;;;;;;;23.40;20.60;;;;;;;19.28;84.90;99533.36;107161;1262;71763;-42
2023/09/15 05:30:32;;;;;;;22.20;18.90;;;;;;;19.29;84.98;99532.56;107050;1257;67883;-43
2023/09/15 05:32:59;;;;;;;21.20;18.60;;;;;;;19.29;84.67;99541.67;107061;1257;71364;-42
2023/09/15 05:35:29;;;;;;;20.30;18.30;;;;;;;19.27;84.47;99543.73;107220;1260;60369;-43
2023/09/15 05:37:56;;;;;;;21.10;19.00;;;;;;;19.26;84.73;99543.75;107213;1262;59660;-42
2023/09/15 05:40:24;;;;;;;22.70;19.30;;;;;;;19.25;84.82;99549.82;107211;1258;72227;-42
2023/09/15 05:42:54;;;;;;;21.10;18.50;;;;;;;19.21;84.75;99550.66;107194;1258;67562;-43
2023/09/15 05:45:22;;;;;;;19.40;16.60;;;;;;;19.25;85.06;99552.56;107268;1262;72694;-40
2023/09/15 05:47:50;;;;;;;17.70;15.90;;;;;;;19.32;84.86;99554.96;107210;1262;60995;-41
2023/09/15 05:50:17;;;;;;;18.50;16.30;;;;;;;19.35;84.60;99556.84;107185;1259;60059;-41
2023/09/15 05:52:45;;;;;;;21.40;16.50;;;;;;;19.37;84.45;99559.78;107213;1262;72093;-42
2023/09/15 05:55:12;;;;;;;20.80;18.40;;;;;;;19.38;84.37;99563.23;107199;1257;67566;-41
2023/09/15 05:57:40;;;;;;;18.80;16.80;;;;;;;19.37;84.51;99564.97;107201;1257;72746;-41
2023/09/15 06:00:09;;;;;;;21.20;16.60;;;;;;;19.41;84.69;99563.43;107218;1263;61848;-42
2023/09/15 06:02:39;;;;;;;16.80;15.00;;;;;;;19.48;84.16;99566.81;107178;1257;59323;-41
2023/09/15 06:05:07;;;;;;;17.90;15.90;;;;;;;19.51;83.28;99566.46;107221;1257;73032;-41
2023/09/15 06:07:34;;;;;;;19.10;15.80;;;;;;;19.50;83.02;99569.14;107239;1263;67601;-41
2023/09/15 06:10:03;;;;;;;17.10;15.40;;;;;;;19.48;82.60;99572.86;107246;1258;71606;-41
2023/09/15 06:12:31;;;;;;;16.30;14.60;;;;;;;19.48;82.49;99573.95;107172;1259;61859;-41
2023/09/15 06:14:58;;;;;;;15.60;13.30;;;;;;;19.52;82.17;99577.75;107210;1258;59613;-41
2023/09/15 06:17:27;;;;;;;17.70;14.10;;;;;;;19.58;82.15;99575.33;107183;1257;73253;-41
2023/09/15 06:19:55;;;;;;;16.30;14.60;;;;;;;19.64;82.23;99578.55;107227;1257;66292;-41
2023/09/15 06:22:23;;;;;;;16.40;14.50;;;;;;;19.67;81.90;99587.21;107194;1263;72789;-41
2023/09/15 06:24:51;;;;;;;16.70;13.00;;;;;;;19.70;81.52;99588.58;107177;1262;61702;-41
2023/09/15 06:27:20;;;;;;;14.20;12.70;;;;;;;19.71;81.10;99591.33;107220;1257;60484;-41
2023/09/15 06:29:47;;;;;;;14.50;13.00;;;;;;;19.73;81.06;99593.02;107230;1257;72713;-41
2023/09/15 06:32:15;;;;;;;13.90;12.10;;;;;;;19.71;80.87;99595.72;107190;1262;67640;-41
2023/09/15 06:34:42;;;;;;;13.60;11.60;;;;;;;19.66;80.06;99596.66;107158;1263;72689;-41
2023/09/15 06:37:10;;;;;;;15.60;11.10;;;;;;;19.62;80.23;99600.48;107177;1257;60405;-42
2023/09/15 06:39:38;;;;;;;12.80;11.00;;;;;;;19.59;80.27;99600.53;107151;1263;60146;-42
2023/09/15 06:42:05;;;;;;;12.50;11.20;;;;;;;19.59;80.56;99600.77;107199;1257;71811;-42
2023/09/15 06:44:34;;;;;;;12.90;11.20;;;;;;;19.58;81.09;99604.23;107193;1257;67439;-42
2023/09/15 06:47:01;;;;;;;11.30;9.40;;;;;;;19.57;81.21;99608.33;107181;1262;72282;-41
2023/09/15 06:49:31;;;;;;;11.30;8.80;;;;;;;19.56;80.62;99614.92;107201;1257;61752;-41
2023/09/15 06:51:59;;;;;;;8.50;7.70;;;;;;;19.57;80.90;99612.96;107195;1258;60289;-41
2023/09/15 06:54:30;;;;;;;9.40;7.10;;;;;;;19.60;80.93;99617.34;107201;1263;73836;-41
2023/09/15 06:56:57;;;;;;;7.70;6.90;;;;;;;19.61;80.84;99617.38;107212;1263;67570;-42
2023/09/15 06:59:25;;;;;;;7.80;6.70;;;;;;;19.63;81.10;99621.21;107185;1262;70583;-42
2023/09/15 07:01:53;;;;;;;8.40;6.60;;;;;;;19.65;81.10;99620.33;107212;1257;61673;-42
2023/09/15 07:04:21;;;;;;;9.60;6.70;;;;;;;19.71;80.86;99623.23;107216;1263;60048;-42
2023/09/15 07:06:48;;;;;;;8.00;6.70;;;;;;;19.77;80.27;99627.70;107196;1257;73851;-42
2023/09/15 07:09:16;;;;;;;7.90;6.70;;;;;;;19.82;80.36;99630.06;107209;1263;67582;-42
2023/09/15 07:11:44;;;;;;;7.70;6.80;;;;;;;19.87;79.89;99627.33;107220;1257;73517;-41
2023/09/15 07:14:11;;;;;;;10.60;5.70;;;;;;;19.92;80.06;99627.70;107192;1257;60391;-45
2023/09/15 07:16:39;;;;;;;8.40;6.10;;;;;;;19.96;79.39;99617.91;107170;1257;60016;-40
2023/09/15 07:19:07;;;;;;;7.10;5.60;;;;;;;20.15;79.13;99623.67;107196;1259;73296;-40
2023/09/15 07:21:41;;;;;;;7.10;6.10;;;;;;;20.28;78.56;99629.52;107226;1263;66769;-40
2023/09/15 07:24:09;;;;;;;6.20;5.60;;;;;;;20.33;77.36;99634.13;107235;1257;71601;-41
2023/09/15 07:26:37;;;;;;;6.80;5.80;;;;;;;20.33;76.92;99635.38;107047;1258;59943;-41
2023/09/15 07:29:05;;;;;;;11.70;6.00;;;;;;;20.34;76.94;99640.85;107261;1257;60323;-41
2023/09/15 07:31:36;;;;;;;5.70;5.00;;;;;;;20.37;75.80;99641.30;107025;1257;73868;-41
2023/09/15 07:34:04;;;;;;;7.80;5.20;;;;;;;20.38;75.46;99645.83;107226;1257;68167;-41
2023/09/15 07:36:31;;;;;;;6.30;5.30;;;;;;;20.35;75.09;99644.00;107202;1257;72674;-41
2023/09/15 07:38:59;;;;;;;5.90;4.90;;;;;;;20.32;75.22;99645.30;107209;1263;60446;-42
2023/09/15 07:41:27;;;;;;;4.90;4.40;;;;;;;20.36;75.65;99644.45;107203;1257;62175;-41
2023/09/15 07:44:00;;;;;;;4.50;4.10;;;;;;;20.44;74.75;99645.66;107021;1258;74261;-41
2023/09/15 07:46:28;;;;;;;4.60;3.90;;;;;;;20.52;75.26;99643.85;107246;1263;67612;-41
2023/09/15 07:48:56;;;;;;;4.30;3.90;;;;;;;20.61;75.08;99649.14;107230;1262;73007;-41
2023/09/15 07:51:24;;;;;;;5.10;4.30;;;;;;;20.68;74.69;99650.05;107071;1257;60420;-41
2023/09/15 07:53:52;;;;;;;4.70;4.20;;;;;;;20.72;73.16;99656.52;107055;1260;61106;-41
2023/09/15 07:56:21;;;;;;;5.00;4.30;;;;;;;20.69;72.72;99658.63;107045;1262;74878;-41
2023/09/15 07:58:48;;;;;;;4.60;3.80;;;;;;;20.69;72.78;99661.92;107271;1262;66847;-41
2023/09/15 08:01:16;;;;;;;4.40;4.00;;;;;;;20.68;71.51;99666.19;107203;1257;72690;-41
2023/09/15 08:03:45;;;;;;;5.00;4.50;;;;;;;20.60;71.70;99675.76;107231;1257;60457;-41
2023/09/15 08:06:13;;;;;;;6.90;4.80;;;;;;;20.51;71.62;99678.11;107097;1260;60351;-41
2023/09/15 08:08:42;;;;;;;4.50;4.00;;;;;;;20.42;71.50;99681.24;107185;1259;73887;-42
2023/09/15 08:11:10;;;;;;;4.10;3.70;;;;;;;20.34;71.89;99683.73;107246;1257;68963;-42
2023/09/15 08:13:37;;;;;;;4.70;4.00;;;;;;;20.31;71.89;99680.72;107179;1257;72840;-41
2023/09/15 08:16:05;;;;;;;4.10;3.70;;;;;;;20.29;72.22;99684.81;107206;1258;60030;-41
2023/09/15 08:18:33;;;;;;;5.20;4.50;;;;;;;20.25;72.26;99681.02;107045;1258;62214;-41
2023/09/15 08:21:01;;;;;;;4.00;3.60;;;;;;;20.22;72.06;99683.03;107272;1257;72741;-41
2023/09/15 08:23:28;;;;;;;5.40;4.20;;;;;;;20.19;72.33;99683.30;107082;1258;66470;-41
2023/09/15 08:25:56;;;;;;;4.30;3.90;;;;;;;20.19;72.32;99681.88;107039;1258;73115;-41
2023/09/15 08:28:23;;;;;;;4.00;3.60;;;;;;;20.19;72.02;99684.17;107053;1257;61146;-41
2023/09/15 08:30:51;;;;;;;4.80;4.10;;;;;;;20.18;72.00;99684.90;107050;1257;60239;-41
2023/09/15 08:33:19;;;;;;;4.70;4.00;;;;;;;20.18;72.32;99684.59;107216;1257;74003;-41
2023/09/15 08:35:47;;;;;;;4.70;4.10;;;;;;;20.21;72.43;99687.76;107176;1257;66796;-41
2023/09/15 08:38:15;;;;;;;4.30;3.90;;;;;;;20.28;72.36;99690.50;107231;1257;71458;-41
2023/09/15 08:40:51;;;;;;;4.90;4.40;;;;;;;20.40;72.01;99689.47;107179;1258;61693;-41
2023/09/15 08:43:19;;;;;;;5.70;4.90;;;;;;;20.49;71.58;99691.38;107038;1258;61149;-41
2023/09/15 08:45:47;;;;;;;4.80;4.40;;;;;;;20.53;70.87;99691.94;107050;1263;75973;-41
2023/09/15 08:48:18;;;;;;;5.80;4.50;;;;;;;20.52;69.71;99693.60;107122;1258;67580;-41
2023/09/15 08:50:46;;;;;;;4.80;4.40;;;;;;;20.48;69.80;99700.36;107114;1258;75442;-41
2023/09/15 08:53:13;;;;;;;4.60;4.10;;;;;;;20.42;70.05;99700.61;107070;1263;61702;-41
2023/09/15 08:55:41;;;;;;;4.70;3.80;;;;;;;20.41;70.29;99702.69;107061;1257;59144;-41
2023/09/15 08:58:08;;;;;;;4.20;3.50;;;;;;;20.42;70.50;99702.83;107086;1258;74030;-41
2023/09/15 09:00:36;;;;;;;3.50;3.00;;;;;;;20.37;70.84;99706.51;107103;1257;69153;-41
2023/09/15 09:03:04;;;;;;;2.80;2.50;;;;;;;20.30;70.90;99712.35;107203;1257;72758;-42
2023/09/15 09:05:32;;;;;;;2.70;2.20;;;;;;;20.23;71.00;99712.66;107216;1257;61824;-41
2023/09/15 09:07:59;;;;;;;2.70;2.30;;;;;;;20.22;71.26;99715.91;107212;1262;59215;-43
2023/09/15 09:10:27;;;;;;;2.50;2.10;;;;;;;20.26;71.70;99715.69;107170;1257;73916;-39
2023/09/15 09:12:55;;;;;;;3.60;2.70;;;;;;;20.29;71.42;99715.33;107227;1257;69007;-40
2023/09/15 09:15:23;;;;;;;2.40;2.20;;;;;;;20.33;71.11;99718.20;107088;1263;73069;-41
2023/09/15 09:17:50;;;;;;;4.20;2.50;;;;;;;20.38;71.03;99720.97;107041;1257;60471;-42
2023/09/15 09:20:23;;;;;;;3.10;2.60;;;;;;;20.40;70.75;99725.11;107095;1257;60148;-41
2023/09/15 09:22:51;;;;;;;3.50;2.50;;;;;;;20.42;70.69;99724.05;107072;1258;73963;-41
2023/09/15 09:25:29;;;;;;;3.00;2.60;;;;;;;20.46;70.45;99726.98;107269;1263;68090;-41
2023/09/15 09:27:58;;;;;;;3.90;2.80;;;;;;;20.45;70.58;99724.02;107215;1262;71985;-42
2023/09/15 09:30:29;;;;;;;3.00;2.70;;;;;;;20.48;71.08;99725.07;107025;1263;62253;-41
2023/09/15 09:32:57;;;;;;;3.00;2.40;;;;;;;20.52;70.80;99725.23;107246;1257;60396;-41
2023/09/15 09:35:25;;;;;;;3.30;2.40;;;;;;;20.57;70.53;99724.06;107020;1257;72898;-41
2023/09/15 09:37:53;;;;;;;3.10;2.80;;;;;;;20.59;70.06;99724.81;107226;1257;67067;-42
2023/09/15 09:40:21;;;;;;;3.20;2.50;;;;;;;20.54;70.24;99725.77;107102;1263;72728;-41
2023/09/15 09:42:49;;;;;;;2.90;2.70;;;;;;;20.50;70.48;99728.11;107285;1257;60598;-41
2023/09/15 09:45:17;;;;;;;2.80;2.60;;;;;;;20.50;70.66;99729.13;107035;1258;60454;-41
2023/09/15 09:47:45;;;;;;;3.20;2.90;;;;;;;20.56;70.35;99732.27;107286;1257;73906;-41
2023/09/15 09:50:16;;;;;;;3.90;3.50;;;;;;;20.67;69.91;99737.67;107089;1263;67509;-42
2023/09/15 09:52:45;;;;;;;4.10;3.70;;;;;;;20.80;69.24;99738.17;107049;1260;72701;-41
2023/09/15 09:55:12;;;;;;;3.90;3.60;;;;;;;20.90;68.81;99746.02;107220;1257;60079;-41
2023/09/15 09:57:40;;;;;;;6.40;3.80;;;;;;;20.93;67.61;99745.89;107193;1258;60357;-41
2023/09/15 10:00:17;;;;;;;4.20;3.50;;;;;;;20.86;67.42;99746.48;107052;1258;72712;-40
2023/09/15 10:02:46;;;;;;;4.10;3.20;;;;;;;20.78;67.29;99754.11;107195;1258;70174;-40
2023/09/15 10:05:14;;;;;;;3.70;3.40;;;;;;;20.72;68.03;99759.64;107281;1257;72869;-40
2023/09/15 10:07:41;;;;;;;4.20;3.80;;;;;;;20.68;68.00;99764.27;107173;1262;60441;-40
2023/09/15 10:10:09;;;;;;;3.90;3.50;;;;;;;20.62;67.79;99763.17;107038;1257;62108;-41
2023/09/15 10:12:37;;;;;;;3.90;3.60;;;;;;;20.49;68.12;99759.20;107249;1257;73992;-41
2023/09/15 10:15:06;;;;;;;5.10;3.70;;;;;;;20.38;68.75;99763.21;107211;1257;66786;-41
2023/09/15 10:17:34;;;;;;;4.10;3.50;;;;;;;20.36;69.39;99766.48;107253;1257;72675;-41
2023/09/15 10:20:02;;;;;;;4.10;3.60;;;;;;;20.37;69.08;99765.05;107043;1257;62702;-41
2023/09/15 10:22:30;;;;;;;4.20;3.50;;;;;;;20.37;69.16;99769.23;107043;1257;60403;-41
2023/09/15 10:24:58;;;;;;;3.80;2.90;;;;;;;20.34;69.40;99767.84;107221;1257;76090;-41
2023/09/15 10:27:29;;;;;;;3.10;2.80;;;;;;;20.31;69.29;99772.91;107139;1258;69026;-41
2023/09/15 10:30:04;;;;;;;3.40;3.00;;;;;;;20.26;69.80;99772.26;107207;1262;71228;-41
2023/09/15 10:32:39;;;;;;;3.30;2.80;;;;;;;20.23;69.80;99776.15;107182;1258;61681;-42
2023/09/15 10:35:08;;;;;;;3.80;2.90;;;;;;;20.21;69.97;99777.83;107236;1257;62633;-41
2023/09/15 10:37:42;;;;;;;3.90;3.50;;;;;;;20.16;70.25;99778.37;107102;1257;73993;-41
2023/09/15 10:40:12;;;;;;;4.30;3.90;;;;;;;20.06;70.15;99780.86;107298;1257;66624;-41
2023/09/15 10:42:50;;;;;;;4.20;3.80;;;;;;;19.91;70.58;99784.51;107178;1257;72198;-41
2023/09/15 10:45:19;;;;;;;5.20;3.50;;;;;;;19.78;71.22;99787.90;107062;1258;61734;-41
2023/09/15 10:47:57;;;;;;;4.50;3.50;;;;;;;19.66;71.57;99787.79;107241;1257;60433;-41
2023/09/15 10:50:39;;;;;;;3.90;3.50;;;;;;;19.60;72.40;99790.52;107095;1257;73980;-41
2023/09/15 10:53:08;;;;;;;5.70;4.20;;;;;;;19.52;72.35;99792.03;107212;1258;67606;-41
2023/09/15 10:55:37;;;;;;;5.20;4.70;;;;;;;19.44;72.40;99793.42;107070;1260;71057;-42
2023/09/15 10:58:05;;;;;;;7.30;4.90;;;;;;;19.40;72.55;99791.41;107292;1257;62439;-41
2023/09/15 11:00:33;;;;;;;6.30;5.30;;;;;;;19.41;72.62;99795.16;107043;1258;62152;-40
2023/09/15 11:03:01;;;;;;;6.10;5.50;;;;;;;19.43;72.67;99789.26;107075;1257;72716;-42
2023/09/15 11:05:28;;;;;;;5.60;5.00;;;;;;;19.40;72.62;99793.45;107064;1258;67879;-40
2023/09/15 11:07:56;;;;;;;6.60;5.60;;;;;;;19.36;72.73;99796.33;107047;1260;72697;-41
2023/09/15 11:10:32;;;;;;;6.90;4.70;;;;;;;19.36;72.95;99798.13;107044;1257;62113;-41
2023/09/15 11:13:01;;;;;;;5.60;4.90;;;;;;;19.36;72.68;99801.84;107206;1258;60310;-41
2023/09/15 11:15:28;;;;;;;5.40;4.90;;;;;;;19.34;73.01;99806.47;107223;1258;76048;-41
2023/09/15 11:17:56;;;;;;;5.70;5.10;;;;;;;19.28;73.20;99811.33;107236;1258;66828;-41
2023/09/15 11:20:24;;;;;;;7.20;4.80;;;;;;;19.20;73.78;99815.15;107163;1257;73658;-41
2023/09/15 11:22:55;;;;;;;12.50;4.90;;;;;;;19.14;74.48;99815.77;107067;1257;60823;-41
2023/09/15 11:25:23;;;;;;;6.60;5.20;;;;;;;19.11;75.08;99817.76;107235;1257;60521;-41